createdAt,value
2023-03-18T00:02:17.127Z,3.22
2023-03-18T00:04:47.135Z,3.18
2023-03-18T00:07:22.233Z,3.20
2023-03-18T00:09:53.248Z,3.17
2023-03-18T00:12:24.162Z,3.14
2023-03-18T00:14:53.140Z,3.14
2023-03-18T00:17:24.430Z,3.12
2023-03-18T00:19:56.897Z,3.11
2023-03-18T00:22:28.175Z,3.10
2023-03-18T00:25:01.890Z,3.10
2023-03-18T00:27:31.341Z,3.11
2023-03-18T00:30:03.973Z,3.09
2023-03-18T00:32:36.907Z,3.06
2023-03-18T00:35:07.896Z,3.03
2023-03-18T00:37:40.329Z,2.99
2023-03-18T00:40:20.821Z,2.94
2023-03-18T00:42:57.999Z,2.92
2023-03-18T00:45:30.601Z,2.88
2023-03-18T00:48:05.292Z,2.83
2023-03-18T00:50:37.867Z,2.82
2023-03-18T00:53:09.455Z,2.82
2023-03-18T00:55:39.810Z,2.80
2023-03-18T00:58:13.988Z,2.78
2023-03-18T01:00:43.782Z,2.77
2023-03-18T01:03:15.163Z,2.75
2023-03-18T01:05:46.093Z,2.75
2023-03-18T01:08:18.145Z,2.74
2023-03-18T01:10:49.671Z,2.71
2023-03-18T01:13:20.780Z,2.66
2023-03-18T01:15:54.961Z,2.62
2023-03-18T01:18:26.524Z,2.58
2023-03-18T01:20:57.392Z,2.59
2023-03-18T01:23:28.380Z,2.60
2023-03-18T01:25:59.544Z,2.60
2023-03-18T01:28:31.192Z,2.59
2023-03-18T01:31:06.272Z,2.57
2023-03-18T01:33:37.136Z,2.58
2023-03-18T01:36:07.934Z,2.56
2023-03-18T01:38:37.636Z,2.54
2023-03-18T01:41:13.159Z,2.55
2023-03-18T01:43:46.849Z,2.53
2023-03-18T01:46:36.785Z,2.51
2023-03-18T01:49:22.247Z,2.44
2023-03-18T01:51:58.941Z,2.41
2023-03-18T01:54:32.404Z,2.37
2023-03-18T01:57:04.219Z,2.35
2023-03-18T01:59:39.864Z,2.34
2023-03-18T02:02:13.329Z,2.34
2023-03-18T02:04:51.574Z,2.34
2023-03-18T02:07:26.087Z,2.33
2023-03-18T02:10:04.422Z,2.34
2023-03-18T02:12:38.905Z,2.32
2023-03-18T02:15:15.965Z,2.30
2023-03-18T02:17:58.515Z,2.32
2023-03-18T02:20:42.467Z,2.32
2023-03-18T02:23:32.007Z,2.30
2023-03-18T02:26:28.793Z,2.28
2023-03-18T02:29:03.645Z,2.24
2023-03-18T02:31:40.583Z,2.22
2023-03-18T02:34:13.656Z,2.20
2023-03-18T02:36:48.619Z,2.20
2023-03-18T02:39:20.136Z,2.18
2023-03-18T02:41:52.659Z,2.17
2023-03-18T02:44:25.957Z,2.18
2023-03-18T02:47:34.078Z,2.14
2023-03-18T02:50:08.454Z,2.10
2023-03-18T02:52:38.639Z,2.09
2023-03-18T02:55:09.702Z,2.07
2023-03-18T02:57:39.832Z,2.06
2023-03-18T03:00:11.097Z,2.03
2023-03-18T03:02:41.727Z,2.05
2023-03-18T03:05:12.753Z,2.06
2023-03-18T03:07:45.423Z,2.04
2023-03-18T03:10:17.924Z,2.02
2023-03-18T03:12:51.911Z,2.01
2023-03-18T03:15:27.787Z,2.01
2023-03-18T03:18:04.689Z,2.00
2023-03-18T03:20:36.086Z,1.98
2023-03-18T03:23:09.691Z,1.97
2023-03-18T03:25:40.564Z,1.95
2023-03-18T03:28:09.659Z,1.90
2023-03-18T03:30:42.298Z,1.88
2023-03-18T03:33:13.326Z,1.87
2023-03-18T03:35:44.110Z,1.85
2023-03-18T03:38:14.067Z,1.83
2023-03-18T03:40:45.764Z,1.81
2023-03-18T03:43:17.511Z,1.79
2023-03-18T03:45:47.442Z,1.80
2023-03-18T03:48:18.769Z,1.81
2023-03-18T03:50:55.160Z,1.80
2023-03-18T03:53:27.189Z,1.78
2023-03-18T03:56:00.576Z,1.78
2023-03-18T03:58:32.307Z,1.76
2023-03-18T04:01:05.544Z,1.75
2023-03-18T04:03:36.163Z,1.74
2023-03-18T04:06:11.434Z,1.74
2023-03-18T04:08:48.276Z,1.73
2023-03-18T04:11:19.067Z,1.71
2023-03-18T04:13:49.430Z,1.70
2023-03-18T04:16:20.466Z,1.69
2023-03-18T04:18:49.617Z,1.71
2023-03-18T04:21:19.692Z,1.70
2023-03-18T04:23:54.399Z,1.70
2023-03-18T04:26:24.889Z,1.70
2023-03-18T04:28:58.819Z,1.71
2023-03-18T04:31:32.655Z,1.71
2023-03-18T04:34:05.035Z,1.71
2023-03-18T04:36:35.650Z,1.71
2023-03-18T04:39:05.635Z,1.70
2023-03-18T04:41:38.144Z,1.69
2023-03-18T04:44:08.407Z,1.70
2023-03-18T04:46:45.876Z,1.70
2023-03-18T04:49:14.926Z,1.69
2023-03-18T04:51:45.575Z,1.71
2023-03-18T04:54:27.717Z,1.71
2023-03-18T04:57:01.003Z,1.74
2023-03-18T04:59:32.200Z,1.75
2023-03-18T05:02:05.669Z,1.76
2023-03-18T05:04:35.723Z,1.77
2023-03-18T05:07:05.362Z,1.80
2023-03-18T05:09:39.801Z,1.83
2023-03-18T05:12:15.709Z,1.88
2023-03-18T05:14:46.600Z,1.93
2023-03-18T05:17:18.198Z,1.99
2023-03-18T05:19:55.826Z,2.03
2023-03-18T05:22:29.502Z,2.06
2023-03-18T05:25:11.930Z,2.10
2023-03-18T05:27:43.337Z,2.15
2023-03-18T05:30:29.429Z,2.19
2023-03-18T05:33:17.230Z,2.23
2023-03-18T05:35:56.209Z,2.27
2023-03-18T05:38:33.356Z,2.32
2023-03-18T05:41:05.446Z,2.37
2023-03-18T05:43:40.626Z,2.43
2023-03-18T05:46:12.474Z,2.48
2023-03-18T05:48:56.448Z,2.54
2023-03-18T05:51:28.489Z,2.58
2023-03-18T05:54:00.495Z,2.62
2023-03-18T05:56:33.568Z,2.67
2023-03-18T05:59:06.455Z,2.70
2023-03-18T06:01:45.159Z,2.76
2023-03-18T06:04:16.378Z,2.80
2023-03-18T06:06:50.034Z,2.86
2023-03-18T06:09:22.968Z,2.91
2023-03-18T06:11:56.951Z,2.97
2023-03-18T06:14:29.738Z,3.03
2023-03-18T06:17:05.054Z,3.08
2023-03-18T06:19:35.965Z,3.14
2023-03-18T06:22:05.414Z,3.20
2023-03-18T06:24:36.450Z,3.27
2023-03-18T06:27:09.334Z,3.34
2023-03-18T06:29:42.170Z,3.42
2023-03-18T06:32:18.795Z,3.50
2023-03-18T06:34:48.218Z,3.60
2023-03-18T06:37:20.013Z,3.69
2023-03-18T06:39:51.668Z,3.78
2023-03-18T06:42:21.492Z,3.92
2023-03-18T06:44:56.926Z,4.09
2023-03-18T06:47:31.789Z,4.33
2023-03-18T06:50:04.339Z,4.65
2023-03-18T06:52:37.662Z,5.01
2023-03-18T06:55:15.349Z,5.28
2023-03-18T06:57:47.040Z,5.54
2023-03-18T07:00:19.272Z,5.80
2023-03-18T07:02:52.842Z,6.05
2023-03-18T07:05:26.664Z,6.29
2023-03-18T07:07:58.896Z,6.69
2023-03-18T07:10:30.931Z,7.14
2023-03-18T07:13:58.885Z,7.47
2023-03-18T07:16:38.380Z,7.84
2023-03-18T07:19:10.852Z,8.14
2023-03-18T07:21:41.790Z,8.40
2023-03-18T07:24:14.565Z,8.59
2023-03-18T07:26:47.217Z,8.71
2023-03-18T07:29:19.127Z,8.66
2023-03-18T07:31:50.606Z,8.50
2023-03-18T07:34:21.707Z,8.36
2023-03-18T07:36:52.355Z,8.52
2023-03-18T07:39:22.920Z,8.80
2023-03-18T07:41:53.472Z,9.15
2023-03-18T07:44:26.972Z,9.49
2023-03-18T07:46:59.931Z,9.79
2023-03-18T07:49:30.848Z,10.23
2023-03-18T07:52:00.319Z,10.86
2023-03-18T07:54:31.604Z,11.24
2023-03-18T07:57:00.921Z,11.49
2023-03-18T07:59:30.444Z,11.91
2023-03-18T08:02:05.291Z,12.22
2023-03-18T08:04:39.945Z,12.04
2023-03-18T08:07:13.432Z,11.87
2023-03-18T08:09:42.490Z,12.14
2023-03-18T08:12:14.720Z,12.42
2023-03-18T08:14:48.773Z,12.62
2023-03-18T08:17:20.091Z,12.82
2023-03-18T08:19:51.616Z,13.30
2023-03-18T08:22:21.480Z,13.62
2023-03-18T08:24:50.820Z,13.97
2023-03-18T08:27:23.100Z,14.51
2023-03-18T08:29:56.762Z,14.93
2023-03-18T08:32:45.045Z,15.44
2023-03-18T08:35:26.477Z,16.08
2023-03-18T08:37:58.150Z,16.64
2023-03-18T08:40:28.459Z,17.10
2023-03-18T08:42:59.252Z,17.39
2023-03-18T08:45:38.210Z,17.82
2023-03-18T08:48:16.166Z,18.20
2023-03-18T08:50:47.596Z,17.87
2023-03-18T08:53:27.265Z,17.48
2023-03-18T08:55:57.906Z,17.22
2023-03-18T08:58:28.047Z,17.17
2023-03-18T09:01:00.023Z,17.23
2023-03-18T09:03:32.951Z,17.08
2023-03-18T09:06:02.307Z,17.41
2023-03-18T09:08:35.965Z,18.10
2023-03-18T09:11:08.568Z,18.90
2023-03-18T09:14:05.124Z,19.13
2023-03-18T09:16:39.818Z,19.00
2023-03-18T09:19:12.691Z,18.75
2023-03-18T09:21:45.161Z,18.44
2023-03-18T09:24:17.585Z,18.43
2023-03-18T09:26:49.602Z,18.35
2023-03-18T09:29:19.482Z,18.30
2023-03-18T09:31:53.481Z,18.47
2023-03-18T09:34:26.955Z,18.54
2023-03-18T09:36:58.598Z,18.73
2023-03-18T09:39:29.765Z,19.28
2023-03-18T09:42:13.746Z,19.77
2023-03-18T09:44:47.196Z,19.98
2023-03-18T09:47:35.733Z,20.11
2023-03-18T09:50:25.356Z,19.94
2023-03-18T09:53:28.186Z,20.24
2023-03-18T09:56:01.886Z,20.40
2023-03-18T09:58:54.961Z,20.31
2023-03-18T10:01:29.116Z,19.66
2023-03-18T10:04:01.861Z,18.85
2023-03-18T10:06:34.259Z,17.19
2023-03-18T10:09:09.339Z,15.93
2023-03-18T10:11:44.294Z,15.24
2023-03-18T10:14:25.623Z,14.67
2023-03-18T10:17:05.461Z,14.22
2023-03-18T10:19:36.710Z,13.76
2023-03-18T10:22:18.526Z,13.54
2023-03-18T10:25:28.961Z,13.40
2023-03-18T10:28:33.054Z,13.21
2023-03-18T10:31:36.199Z,13.03
2023-03-18T10:34:23.262Z,12.93
2023-03-18T10:37:13.170Z,12.89
2023-03-18T10:39:46.126Z,13.02
2023-03-18T10:42:21.106Z,13.18
2023-03-18T10:44:54.108Z,13.71
2023-03-18T10:47:31.016Z,14.08
2023-03-18T10:50:44.271Z,13.81
2023-03-18T10:53:24.135Z,14.03
2023-03-18T10:56:08.611Z,14.56
2023-03-18T10:58:44.910Z,14.65
2023-03-18T11:01:21.818Z,15.06
2023-03-18T11:04:02.977Z,15.24
2023-03-18T11:06:58.071Z,15.17
2023-03-18T11:09:36.812Z,15.16
2023-03-18T11:13:23.327Z,14.97
2023-03-18T11:15:57.093Z,14.10
2023-03-18T11:18:29.769Z,13.69
2023-03-18T11:21:05.135Z,13.69
2023-03-18T11:23:58.050Z,14.16
2023-03-18T11:26:29.760Z,14.70
2023-03-18T11:29:08.319Z,15.09
2023-03-18T11:31:55.367Z,15.23
2023-03-18T11:34:31.083Z,15.25
2023-03-18T11:37:08.667Z,15.41
2023-03-18T11:39:42.111Z,15.51
2023-03-18T11:42:26.331Z,15.32
2023-03-18T11:45:01.697Z,14.79
2023-03-18T11:47:39.774Z,14.40
2023-03-18T11:50:35.631Z,14.02
2023-03-18T11:53:19.491Z,13.83
2023-03-18T11:55:56.148Z,13.83
2023-03-18T11:58:52.455Z,14.18
2023-03-18T12:01:45.825Z,14.62
2023-03-18T12:04:33.250Z,14.87
2023-03-18T12:07:09.257Z,14.89
2023-03-18T12:09:53.896Z,15.05
2023-03-18T12:13:15.951Z,14.91
2023-03-18T12:15:55.541Z,15.18
2023-03-18T12:18:39.335Z,15.12
2023-03-18T12:21:39.102Z,14.88
2023-03-18T12:24:46.493Z,14.59
2023-03-18T12:27:39.602Z,14.43
2023-03-18T12:30:57.783Z,14.34
2023-03-18T12:33:53.503Z,14.21
2023-03-18T12:36:42.873Z,14.13
2023-03-18T12:39:56.098Z,14.17
2023-03-18T12:42:39.383Z,14.12
2023-03-18T12:45:20.059Z,13.99
2023-03-18T12:47:54.527Z,13.77
2023-03-18T12:50:37.287Z,13.68
2023-03-18T12:53:23.083Z,13.70
2023-03-18T12:55:59.112Z,13.77
2023-03-18T12:58:51.241Z,13.81
2023-03-18T13:01:36.771Z,13.88
2023-03-18T13:04:12.519Z,13.77
2023-03-18T13:06:46.736Z,13.64
2023-03-18T13:09:35.303Z,13.52
2023-03-18T13:12:42.157Z,13.47
2023-03-18T13:15:28.315Z,13.49
2023-03-18T13:18:14.334Z,13.54
2023-03-18T13:20:48.432Z,13.59
2023-03-18T13:23:48.845Z,13.79
2023-03-18T13:26:40.965Z,13.73
2023-03-18T13:29:48.863Z,13.62
2023-03-18T13:33:18.354Z,13.43
2023-03-18T13:35:52.559Z,13.24
2023-03-18T13:38:41.030Z,13.12
2023-03-18T13:41:55.844Z,12.89
2023-03-18T13:44:57.271Z,12.72
2023-03-18T13:47:31.949Z,12.61
2023-03-18T13:50:29.990Z,12.49
2023-03-18T13:53:02.170Z,12.36
2023-03-18T13:55:37.807Z,12.24
2023-03-18T13:58:14.535Z,12.20
2023-03-18T14:01:12.546Z,12.18
2023-03-18T14:03:44.894Z,12.12
2023-03-18T14:06:57.787Z,12.08
2023-03-18T14:09:28.245Z,12.05
2023-03-18T14:12:17.354Z,11.96
2023-03-18T14:14:54.280Z,11.92
2023-03-18T14:17:59.969Z,11.90
2023-03-18T14:20:39.253Z,11.87
2023-03-18T14:23:39.639Z,11.85
2023-03-18T14:26:21.113Z,11.84
2023-03-18T14:29:09.773Z,11.85
2023-03-18T14:32:00.788Z,11.81
2023-03-18T14:34:36.834Z,11.75
2023-03-18T14:37:20.590Z,11.74
2023-03-18T14:39:54.715Z,11.77
2023-03-18T14:42:29.022Z,11.82
2023-03-18T14:45:19.501Z,11.83
2023-03-18T14:47:58.016Z,11.84
2023-03-18T14:50:51.152Z,11.85
2023-03-18T14:53:30.358Z,11.88
2023-03-18T14:56:01.040Z,11.88
2023-03-18T14:58:33.685Z,11.86
2023-03-18T15:01:15.952Z,11.81
2023-03-18T15:03:50.622Z,11.73
2023-03-18T15:06:22.765Z,11.66
2023-03-18T15:09:11.107Z,11.60
2023-03-18T15:11:47.093Z,11.53
2023-03-18T15:14:22.177Z,11.44
2023-03-18T15:16:54.572Z,11.35
2023-03-18T15:19:26.003Z,11.26
2023-03-18T15:22:04.973Z,11.18
2023-03-18T15:24:36.103Z,11.11
2023-03-18T15:27:14.468Z,11.02
2023-03-18T15:30:02.764Z,10.93
2023-03-18T15:32:50.155Z,10.86
2023-03-18T15:35:24.895Z,10.81
2023-03-18T15:38:18.624Z,10.77
2023-03-18T15:40:50.554Z,10.73
2023-03-18T15:43:31.831Z,10.67
2023-03-18T15:46:08.434Z,10.64
2023-03-18T15:48:55.071Z,10.59
2023-03-18T15:51:40.597Z,10.55
2023-03-18T15:54:27.349Z,10.50
2023-03-18T15:56:59.296Z,10.46
2023-03-18T15:59:33.052Z,10.41
2023-03-18T16:02:06.346Z,10.36
2023-03-18T16:04:38.085Z,10.31
2023-03-18T16:07:19.349Z,10.25
2023-03-18T16:09:51.828Z,10.19
2023-03-18T16:12:26.002Z,10.13
2023-03-18T16:14:56.467Z,10.05
2023-03-18T16:17:27.261Z,9.98
2023-03-18T16:20:00.546Z,9.90
2023-03-18T16:22:33.753Z,9.83
2023-03-18T16:25:04.935Z,9.75
2023-03-18T16:27:50.496Z,9.67
2023-03-18T16:30:30.107Z,9.60
2023-03-18T16:33:02.866Z,9.53
2023-03-18T16:35:36.076Z,9.47
2023-03-18T16:38:07.414Z,9.40
2023-03-18T16:40:38.211Z,9.34
2023-03-18T16:43:17.230Z,9.28
2023-03-18T16:45:49.003Z,9.23
2023-03-18T16:48:22.513Z,9.20
2023-03-18T16:50:53.324Z,9.15
2023-03-18T16:53:36.945Z,9.10
2023-03-18T16:56:19.347Z,9.05
2023-03-18T16:58:49.782Z,9.02
2023-03-18T17:01:21.564Z,8.97
2023-03-18T17:03:52.469Z,8.92
2023-03-18T17:06:25.205Z,8.87
2023-03-18T17:08:55.152Z,8.84
2023-03-18T17:11:27.853Z,8.81
2023-03-18T17:13:59.466Z,8.79
2023-03-18T17:16:32.667Z,8.77
2023-03-18T17:19:06.222Z,8.76
2023-03-18T17:21:38.713Z,8.72
2023-03-18T17:24:09.054Z,8.71
2023-03-18T17:26:39.378Z,8.70
2023-03-18T17:29:33.832Z,8.66
2023-03-18T17:32:04.732Z,8.63
2023-03-18T17:34:34.649Z,8.62
2023-03-18T17:37:06.130Z,8.60
2023-03-18T17:39:38.693Z,8.56
2023-03-18T17:42:37.181Z,8.56
2023-03-18T17:45:24.580Z,8.53
2023-03-18T17:48:13.330Z,8.51
2023-03-18T17:50:45.777Z,8.48
2023-03-18T17:53:30.049Z,8.45
2023-03-18T17:56:01.666Z,8.42
2023-03-18T17:58:36.983Z,8.40
2023-03-18T18:01:17.973Z,8.36
2023-03-18T18:03:51.788Z,8.34
2023-03-18T18:06:26.570Z,8.34
2023-03-18T18:09:05.002Z,8.33
2023-03-18T18:11:40.762Z,8.35
2023-03-18T18:14:25.059Z,8.34
2023-03-18T18:17:02.177Z,8.31
2023-03-18T18:19:36.199Z,8.27
2023-03-18T18:22:21.710Z,8.24
2023-03-18T18:24:58.060Z,8.21
2023-03-18T18:27:30.302Z,8.18
2023-03-18T18:30:05.161Z,8.17
2023-03-18T18:32:41.864Z,8.15
2023-03-18T18:35:18.797Z,8.15
2023-03-18T18:37:53.868Z,8.14
2023-03-18T18:40:25.057Z,8.14
2023-03-18T18:42:55.133Z,8.14
2023-03-18T18:45:25.935Z,8.13
2023-03-18T18:47:59.214Z,8.12
2023-03-18T18:50:36.696Z,8.12
2023-03-18T18:53:26.359Z,8.12
2023-03-18T18:56:04.492Z,8.09
2023-03-18T18:58:39.376Z,8.10
2023-03-18T19:01:15.856Z,8.11
2023-03-18T19:03:50.969Z,8.12
2023-03-18T19:06:34.347Z,8.12
2023-03-18T19:09:25.582Z,8.11
2023-03-18T19:12:00.234Z,8.10
2023-03-18T19:14:35.959Z,8.12
2023-03-18T19:17:08.707Z,8.12
2023-03-18T19:19:43.063Z,8.11
2023-03-18T19:22:18.050Z,8.09
2023-03-18T19:24:54.950Z,8.07
2023-03-18T19:27:29.868Z,8.06
2023-03-18T19:30:06.641Z,8.05
2023-03-18T19:32:38.813Z,8.05
2023-03-18T19:35:16.089Z,8.04
2023-03-18T19:37:49.833Z,8.02
2023-03-18T19:40:30.187Z,8.00
2023-03-18T19:43:03.788Z,7.97
2023-03-18T19:45:37.887Z,7.96
2023-03-18T19:48:17.336Z,7.95
2023-03-18T19:50:50.693Z,7.95
2023-03-18T19:53:25.760Z,7.92
2023-03-18T19:55:59.826Z,7.89
2023-03-18T19:58:38.918Z,7.85
2023-03-18T20:01:09.604Z,7.81
2023-03-18T20:03:46.819Z,7.76
2023-03-18T20:06:19.657Z,7.71
2023-03-18T20:08:54.536Z,7.67
2023-03-18T20:11:29.337Z,7.64
2023-03-18T20:14:15.353Z,7.59
2023-03-18T20:16:47.628Z,7.56
2023-03-18T20:19:19.597Z,7.52
2023-03-18T20:21:53.618Z,7.50
2023-03-18T20:24:31.219Z,7.47
2023-03-18T20:27:02.340Z,7.44
2023-03-18T20:29:35.074Z,7.40
2023-03-18T20:32:08.739Z,7.36
2023-03-18T20:34:42.868Z,7.34
2023-03-18T20:37:35.748Z,7.32
2023-03-18T20:40:22.026Z,7.29
2023-03-18T20:42:59.880Z,7.25
2023-03-18T20:45:32.719Z,7.23
2023-03-18T20:48:07.727Z,7.22
2023-03-18T20:50:41.109Z,7.20
2023-03-18T20:53:32.328Z,7.16
2023-03-18T20:56:08.822Z,7.13
2023-03-18T20:58:45.905Z,7.09
2023-03-18T21:01:23.266Z,7.05
2023-03-18T21:03:53.836Z,7.01
2023-03-18T21:06:28.202Z,6.98
2023-03-18T21:08:59.971Z,6.95
2023-03-18T21:11:38.535Z,6.91
2023-03-18T21:14:34.245Z,6.88
2023-03-18T21:17:07.548Z,6.82
2023-03-18T21:19:38.303Z,6.78
2023-03-18T21:22:17.920Z,6.74
2023-03-18T21:24:51.037Z,6.70
2023-03-18T21:27:25.253Z,6.68
2023-03-18T21:30:05.024Z,6.65
2023-03-18T21:32:38.494Z,6.63
2023-03-18T21:35:15.832Z,6.61
2023-03-18T21:37:50.530Z,6.57
2023-03-18T21:40:23.742Z,6.53
2023-03-18T21:42:55.589Z,6.48
2023-03-18T21:45:28.283Z,6.44
2023-03-18T21:47:58.203Z,6.41
2023-03-18T21:50:30.716Z,6.37
2023-03-18T21:52:59.959Z,6.34
2023-03-18T21:55:31.146Z,6.31
2023-03-18T21:58:02.861Z,6.27
2023-03-18T22:00:37.566Z,6.25
2023-03-18T22:03:32.696Z,6.22
2023-03-18T22:06:03.258Z,6.19
2023-03-18T22:08:34.925Z,6.16
2023-03-18T22:11:11.928Z,6.12
2023-03-18T22:14:14.685Z,6.10
2023-03-18T22:16:44.077Z,6.07
2023-03-18T22:19:18.091Z,6.04
2023-03-18T22:21:51.140Z,6.01
2023-03-18T22:24:22.344Z,5.98
2023-03-18T22:26:53.233Z,5.98
2023-03-18T22:29:24.793Z,5.94
2023-03-18T22:31:57.122Z,5.95
2023-03-18T22:34:32.949Z,5.95
2023-03-18T22:37:02.376Z,5.94
2023-03-18T22:39:31.585Z,5.93
2023-03-18T22:42:02.215Z,5.93
2023-03-18T22:44:33.917Z,5.92
2023-03-18T22:47:05.204Z,5.91
2023-03-18T22:49:37.764Z,5.87
2023-03-18T22:52:08.046Z,5.82
2023-03-18T22:54:38.777Z,5.79
2023-03-18T22:57:20.358Z,5.77
2023-03-18T22:59:51.736Z,5.75
2023-03-18T23:02:26.029Z,5.71
2023-03-18T23:04:57.925Z,5.67
2023-03-18T23:07:34.185Z,5.66
2023-03-18T23:10:06.795Z,5.64
2023-03-18T23:13:56.516Z,5.63
2023-03-18T23:16:28.325Z,5.61
2023-03-18T23:18:57.888Z,5.61
2023-03-18T23:21:27.895Z,5.60
2023-03-18T23:24:00.268Z,5.61
2023-03-18T23:26:30.104Z,5.64
2023-03-18T23:29:03.319Z,5.65
2023-03-18T23:31:33.040Z,5.65
2023-03-18T23:34:03.327Z,5.64
2023-03-18T23:36:33.124Z,5.64
2023-03-18T23:39:06.127Z,5.63
2023-03-18T23:41:36.563Z,5.61
2023-03-18T23:44:07.550Z,5.61
2023-03-18T23:46:37.470Z,5.62
2023-03-18T23:49:08.587Z,5.61
2023-03-18T23:51:38.747Z,5.61
2023-03-18T23:54:11.178Z,5.61
2023-03-18T23:56:44.688Z,5.61
2023-03-18T23:59:17.823Z,5.60
